Black Rock, Arkansas
Current Conditions -  °F | °C
As of 4:15 PM on Saturday 25 Oct 2014 (Local Time) from KARG Reporting Station
Clear Clear  
Wind Chill: 29°   Ceiling: Unl
Heat Index: 29°   Visibility: 4mi
Dew Point: 17°   Wind: 7mph
Humidity: 48%   Direction: 210°SSW
Pressure: 29.99"   Gusts: NA
Location:  36.11°N, 91.1°W
Report Text: KARG 252115Z AUTO 21006KT 4SM CLR 29/17 A2999 RMK AO1
Loading
Personal Weather Stations






























Interactive Weather Map
Tropical Storm Tracking
New forecast layout! Learn more

10-Day Weather Forecast

Advertisements
Track Severe Weather on mobile